sensor_id;sensor_type;location;lat;lon;timestamp;temperature;humidity
29575;DHT22;16507;51.046;6.406;2022-08-20T00:00:21;18.80;99.90
29575;DHT22;16507;51.046;6.406;2022-08-20T00:02:56;18.80;99.90
29575;DHT22;16507;51.046;6.406;2022-08-20T00:05:33;18.70;99.90
29575;DHT22;16507;51.046;6.406;2022-08-20T00:07:59;18.80;99.90
29575;DHT22;16507;51.046;6.406;2022-08-20T00:10:27;18.80;99.90
29575;DHT22;16507;51.046;6.406;2022-08-20T00:12:53;18.80;99.90
29575;DHT22;16507;51.046;6.406;2022-08-20T00:15:23;18.80;99.90
29575;DHT22;16507;51.046;6.406;2022-08-20T00:17:50;18.70;99.90
29575;DHT22;16507;51.046;6.406;2022-08-20T00:20:18;18.60;99.90
29575;DHT22;16507;51.046;6.406;2022-08-20T00:22:44;18.60;99.90
29575;DHT22;16507;51.046;6.406;2022-08-20T00:25:10;18.70;99.90
29575;DHT22;16507;51.046;6.406;2022-08-20T00:27:36;18.70;99.90
29575;DHT22;16507;51.046;6.406;2022-08-20T00:30:05;18.60;99.90
29575;DHT22;16507;51.046;6.406;2022-08-20T00:32:43;18.70;99.90
29575;DHT22;16507;51.046;6.406;2022-08-20T00:35:09;18.60;99.90
29575;DHT22;16507;51.046;6.406;2022-08-20T00:37:35;18.60;99.90
29575;DHT22;16507;51.046;6.406;2022-08-20T00:40:00;18.70;99.90
29575;DHT22;16507;51.046;6.406;2022-08-20T00:42:26;18.70;99.90
29575;DHT22;16507;51.046;6.406;2022-08-20T00:44:52;18.70;99.90
29575;DHT22;16507;51.046;6.406;2022-08-20T00:47:17;18.70;99.90
29575;DHT22;16507;51.046;6.406;2022-08-20T00:49:44;18.60;99.90
29575;DHT22;16507;51.046;6.406;2022-08-20T00:52:17;18.60;99.90
29575;DHT22;16507;51.046;6.406;2022-08-20T00:54:56;18.60;99.90
29575;DHT22;16507;51.046;6.406;2022-08-20T00:57:32;18.50;99.90
29575;DHT22;16507;51.046;6.406;2022-08-20T01:00:00;18.60;99.90
29575;DHT22;16507;51.046;6.406;2022-08-20T01:02:28;18.50;99.90
29575;DHT22;16507;51.046;6.406;2022-08-20T01:04:56;18.40;99.90
29575;DHT22;16507;51.046;6.406;2022-08-20T01:07:23;18.40;99.90
29575;DHT22;16507;51.046;6.406;2022-08-20T01:09:58;18.40;99.90
29575;DHT22;16507;51.046;6.406;2022-08-20T01:12:24;18.40;99.90
29575;DHT22;16507;51.046;6.406;2022-08-20T01:14:50;18.40;99.90
29575;DHT22;16507;51.046;6.406;2022-08-20T01:17:22;18.40;99.90
29575;DHT22;16507;51.046;6.406;2022-08-20T01:20:01;18.50;99.90
29575;DHT22;16507;51.046;6.406;2022-08-20T01:22:58;18.50;99.90
29575;DHT22;16507;51.046;6.406;2022-08-20T01:25:49;18.50;99.90
29575;DHT22;16507;51.046;6.406;2022-08-20T01:28:22;18.60;99.90
29575;DHT22;16507;51.046;6.406;2022-08-20T01:30:49;18.50;99.90
29575;DHT22;16507;51.046;6.406;2022-08-20T01:33:17;18.50;99.90
29575;DHT22;16507;51.046;6.406;2022-08-20T01:35:42;18.60;99.90
29575;DHT22;16507;51.046;6.406;2022-08-20T01:38:09;18.60;99.90
29575;DHT22;16507;51.046;6.406;2022-08-20T01:43:25;18.50;99.90
29575;DHT22;16507;51.046;6.406;2022-08-20T01:45:52;18.60;99.90
29575;DHT22;16507;51.046;6.406;2022-08-20T01:48:18;18.60;99.90
29575;DHT22;16507;51.046;6.406;2022-08-20T01:50:59;18.60;99.90
29575;DHT22;16507;51.046;6.406;2022-08-20T01:53:35;18.50;99.90
29575;DHT22;16507;51.046;6.406;2022-08-20T01:56:04;18.50;99.90
29575;DHT22;16507;51.046;6.406;2022-08-20T01:58:31;18.50;99.90
29575;DHT22;16507;51.046;6.406;2022-08-20T02:00:57;18.50;99.90
29575;DHT22;16507;51.046;6.406;2022-08-20T02:03:23;18.50;99.90
29575;DHT22;16507;51.046;6.406;2022-08-20T02:05:48;18.60;99.90
29575;DHT22;16507;51.046;6.406;2022-08-20T02:08:14;18.50;99.90
29575;DHT22;16507;51.046;6.406;2022-08-20T02:10:40;18.60;99.90
29575;DHT22;16507;51.046;6.406;2022-08-20T02:13:06;18.50;99.90
29575;DHT22;16507;51.046;6.406;2022-08-20T02:15:35;18.60;99.90
29575;DHT22;16507;51.046;6.406;2022-08-20T02:18:07;18.60;99.90
29575;DHT22;16507;51.046;6.406;2022-08-20T02:20:33;18.50;99.90
29575;DHT22;16507;51.046;6.406;2022-08-20T02:22:59;18.60;99.90
29575;DHT22;16507;51.046;6.406;2022-08-20T02:25:27;18.50;99.90
29575;DHT22;16507;51.046;6.406;2022-08-20T02:27:55;18.50;99.90
29575;DHT22;16507;51.046;6.406;2022-08-20T02:30:28;18.50;99.90
29575;DHT22;16507;51.046;6.406;2022-08-20T02:32:58;18.50;99.90
29575;DHT22;16507;51.046;6.406;2022-08-20T02:35:24;18.50;99.90
29575;DHT22;16507;51.046;6.406;2022-08-20T02:37:51;18.40;99.90
29575;DHT22;16507;51.046;6.406;2022-08-20T02:40:19;18.40;99.90
29575;DHT22;16507;51.046;6.406;2022-08-20T02:42:45;18.50;99.90
29575;DHT22;16507;51.046;6.406;2022-08-20T02:45:15;18.50;99.90
29575;DHT22;16507;51.046;6.406;2022-08-20T02:47:42;18.50;99.90
29575;DHT22;16507;51.046;6.406;2022-08-20T02:50:15;18.50;99.90
29575;DHT22;16507;51.046;6.406;2022-08-20T02:52:41;18.50;99.90
29575;DHT22;16507;51.046;6.406;2022-08-20T02:55:08;18.50;99.90
29575;DHT22;16507;51.046;6.406;2022-08-20T02:57:35;18.60;99.90
29575;DHT22;16507;51.046;6.406;2022-08-20T03:00:01;18.60;99.90
29575;DHT22;16507;51.046;6.406;2022-08-20T03:02:28;18.60;99.90
29575;DHT22;16507;51.046;6.406;2022-08-20T03:04:55;18.70;99.90
29575;DHT22;16507;51.046;6.406;2022-08-20T03:07:20;18.70;99.90
29575;DHT22;16507;51.046;6.406;2022-08-20T03:09:47;18.70;99.90
29575;DHT22;16507;51.046;6.406;2022-08-20T03:12:12;18.80;99.90
29575;DHT22;16507;51.046;6.406;2022-08-20T03:14:38;18.80;99.90
29575;DHT22;16507;51.046;6.406;2022-08-20T03:17:04;18.70;99.90
29575;DHT22;16507;51.046;6.406;2022-08-20T03:19:29;18.80;99.90
29575;DHT22;16507;51.046;6.406;2022-08-20T03:21:55;18.80;99.90
29575;DHT22;16507;51.046;6.406;2022-08-20T03:24:21;18.80;99.90
29575;DHT22;16507;51.046;6.406;2022-08-20T03:26:47;18.80;99.90
29575;DHT22;16507;51.046;6.406;2022-08-20T03:29:13;18.90;99.90
29575;DHT22;16507;51.046;6.406;2022-08-20T03:31:38;18.80;99.90
29575;DHT22;16507;51.046;6.406;2022-08-20T03:34:04;18.90;99.90
29575;DHT22;16507;51.046;6.406;2022-08-20T03:36:30;18.80;99.90
29575;DHT22;16507;51.046;6.406;2022-08-20T03:38:58;18.80;99.90
29575;DHT22;16507;51.046;6.406;2022-08-20T03:41:24;18.80;99.90
29575;DHT22;16507;51.046;6.406;2022-08-20T03:43:50;18.80;99.90
29575;DHT22;16507;51.046;6.406;2022-08-20T03:46:16;18.70;99.90
29575;DHT22;16507;51.046;6.406;2022-08-20T03:48:42;18.70;99.90
29575;DHT22;16507;51.046;6.406;2022-08-20T03:51:07;18.70;99.90
29575;DHT22;16507;51.046;6.406;2022-08-20T03:53:34;18.70;99.90
29575;DHT22;16507;51.046;6.406;2022-08-20T03:56:03;18.70;99.90
29575;DHT22;16507;51.046;6.406;2022-08-20T03:58:30;18.70;99.90
29575;DHT22;16507;51.046;6.406;2022-08-20T04:00:56;18.70;99.90
29575;DHT22;16507;51.046;6.406;2022-08-20T04:03:22;18.70;99.90
29575;DHT22;16507;51.046;6.406;2022-08-20T04:05:48;18.70;99.90
29575;DHT22;16507;51.046;6.406;2022-08-20T04:08:23;18.70;99.90
29575;DHT22;16507;51.046;6.406;2022-08-20T04:10:49;18.60;99.90
29575;DHT22;16507;51.046;6.406;2022-08-20T04:13:18;18.70;99.90
29575;DHT22;16507;51.046;6.406;2022-08-20T04:15:44;18.60;99.90
29575;DHT22;16507;51.046;6.406;2022-08-20T04:18:11;18.60;99.90
29575;DHT22;16507;51.046;6.406;2022-08-20T04:20:39;18.60;99.90
29575;DHT22;16507;51.046;6.406;2022-08-20T04:23:05;18.60;99.90
29575;DHT22;16507;51.046;6.406;2022-08-20T04:25:34;18.50;99.90
29575;DHT22;16507;51.046;6.406;2022-08-20T04:28:01;18.60;99.90
29575;DHT22;16507;51.046;6.406;2022-08-20T04:30:28;18.60;99.90
29575;DHT22;16507;51.046;6.406;2022-08-20T04:32:54;18.50;99.90
29575;DHT22;16507;51.046;6.406;2022-08-20T04:35:21;18.50;99.90
29575;DHT22;16507;51.046;6.406;2022-08-20T04:37:49;18.60;99.90
29575;DHT22;16507;51.046;6.406;2022-08-20T04:40:17;18.50;99.90
29575;DHT22;16507;51.046;6.406;2022-08-20T04:43:03;18.50;99.90
29575;DHT22;16507;51.046;6.406;2022-08-20T04:45:30;18.40;99.90
29575;DHT22;16507;51.046;6.406;2022-08-20T04:47:56;18.40;99.90
29575;DHT22;16507;51.046;6.406;2022-08-20T04:50:22;18.40;99.90
29575;DHT22;16507;51.046;6.406;2022-08-20T04:52:48;18.40;99.90
29575;DHT22;16507;51.046;6.406;2022-08-20T04:55:15;18.40;99.90
29575;DHT22;16507;51.046;6.406;2022-08-20T04:57:42;18.40;99.90
29575;DHT22;16507;51.046;6.406;2022-08-20T05:00:12;18.30;99.90
29575;DHT22;16507;51.046;6.406;2022-08-20T05:02:38;18.30;99.90
29575;DHT22;16507;51.046;6.406;2022-08-20T05:05:05;18.30;99.90
29575;DHT22;16507;51.046;6.406;2022-08-20T05:07:41;18.30;99.90
29575;DHT22;16507;51.046;6.406;2022-08-20T05:10:09;18.30;99.90
29575;DHT22;16507;51.046;6.406;2022-08-20T05:12:35;18.30;99.90
29575;DHT22;16507;51.046;6.406;2022-08-20T05:15:01;18.30;99.90
29575;DHT22;16507;51.046;6.406;2022-08-20T05:17:26;18.20;99.90
29575;DHT22;16507;51.046;6.406;2022-08-20T05:19:53;18.20;99.90
29575;DHT22;16507;51.046;6.406;2022-08-20T05:22:19;18.20;99.90
29575;DHT22;16507;51.046;6.406;2022-08-20T05:24:44;18.20;99.90
29575;DHT22;16507;51.046;6.406;2022-08-20T05:27:10;18.10;99.90
29575;DHT22;16507;51.046;6.406;2022-08-20T05:29:36;18.10;99.90
29575;DHT22;16507;51.046;6.406;2022-08-20T05:32:02;18.10;99.90
29575;DHT22;16507;51.046;6.406;2022-08-20T05:34:28;18.10;99.90
29575;DHT22;16507;51.046;6.406;2022-08-20T05:36:53;18.00;99.90
29575;DHT22;16507;51.046;6.406;2022-08-20T05:39:20;18.00;99.90
29575;DHT22;16507;51.046;6.406;2022-08-20T05:41:46;18.00;99.90
29575;DHT22;16507;51.046;6.406;2022-08-20T05:44:14;18.10;99.90
29575;DHT22;16507;51.046;6.406;2022-08-20T05:46:43;18.10;99.90
29575;DHT22;16507;51.046;6.406;2022-08-20T05:49:10;18.10;99.90
29575;DHT22;16507;51.046;6.406;2022-08-20T05:51:37;18.10;99.90
29575;DHT22;16507;51.046;6.406;2022-08-20T05:54:04;18.10;99.90
29575;DHT22;16507;51.046;6.406;2022-08-20T05:56:30;18.00;99.90
29575;DHT22;16507;51.046;6.406;2022-08-20T05:58:57;18.00;99.90
29575;DHT22;16507;51.046;6.406;2022-08-20T06:01:23;18.00;99.90
29575;DHT22;16507;51.046;6.406;2022-08-20T06:03:48;18.00;99.90
29575;DHT22;16507;51.046;6.406;2022-08-20T06:06:33;17.90;99.90
29575;DHT22;16507;51.046;6.406;2022-08-20T06:08:59;17.80;99.90
29575;DHT22;16507;51.046;6.406;2022-08-20T06:11:24;17.80;99.90
29575;DHT22;16507;51.046;6.406;2022-08-20T06:13:50;17.80;99.90
29575;DHT22;16507;51.046;6.406;2022-08-20T06:16:16;17.80;99.90
29575;DHT22;16507;51.046;6.406;2022-08-20T06:18:41;17.80;99.90
29575;DHT22;16507;51.046;6.406;2022-08-20T06:21:07;17.90;99.90
29575;DHT22;16507;51.046;6.406;2022-08-20T06:23:33;17.90;99.90
29575;DHT22;16507;51.046;6.406;2022-08-20T06:25:58;17.90;99.90
29575;DHT22;16507;51.046;6.406;2022-08-20T06:28:24;17.90;99.90
29575;DHT22;16507;51.046;6.406;2022-08-20T06:30:49;18.10;99.90
29575;DHT22;16507;51.046;6.406;2022-08-20T06:33:15;18.10;99.90
29575;DHT22;16507;51.046;6.406;2022-08-20T06:35:41;18.10;99.90
29575;DHT22;16507;51.046;6.406;2022-08-20T06:38:10;18.30;99.90
29575;DHT22;16507;51.046;6.406;2022-08-20T06:40:37;18.20;99.90
29575;DHT22;16507;51.046;6.406;2022-08-20T06:43:02;18.10;99.90
29575;DHT22;16507;51.046;6.406;2022-08-20T06:45:30;18.00;99.90
29575;DHT22;16507;51.046;6.406;2022-08-20T06:47:59;17.90;99.90
29575;DHT22;16507;51.046;6.406;2022-08-20T06:50:34;18.00;99.90
29575;DHT22;16507;51.046;6.406;2022-08-20T06:53:08;17.90;99.90
29575;DHT22;16507;51.046;6.406;2022-08-20T06:55:37;17.90;99.90
29575;DHT22;16507;51.046;6.406;2022-08-20T06:58:06;17.80;99.90
29575;DHT22;16507;51.046;6.406;2022-08-20T07:00:33;17.70;99.90
29575;DHT22;16507;51.046;6.406;2022-08-20T07:03:00;17.50;99.90
29575;DHT22;16507;51.046;6.406;2022-08-20T07:05:28;17.50;99.90
29575;DHT22;16507;51.046;6.406;2022-08-20T07:07:54;17.50;99.90
29575;DHT22;16507;51.046;6.406;2022-08-20T07:10:21;17.40;99.90
29575;DHT22;16507;51.046;6.406;2022-08-20T07:12:47;17.40;99.90
29575;DHT22;16507;51.046;6.406;2022-08-20T07:15:16;17.40;99.90
29575;DHT22;16507;51.046;6.406;2022-08-20T07:17:47;17.40;99.90
29575;DHT22;16507;51.046;6.406;2022-08-20T07:20:14;17.40;99.90
29575;DHT22;16507;51.046;6.406;2022-08-20T07:22:40;17.30;99.90
29575;DHT22;16507;51.046;6.406;2022-08-20T07:25:09;17.40;99.90
29575;DHT22;16507;51.046;6.406;2022-08-20T07:27:35;17.30;99.90
29575;DHT22;16507;51.046;6.406;2022-08-20T07:30:04;17.30;99.90
29575;DHT22;16507;51.046;6.406;2022-08-20T07:32:48;17.40;99.90
29575;DHT22;16507;51.046;6.406;2022-08-20T07:35:16;17.50;99.90
29575;DHT22;16507;51.046;6.406;2022-08-20T07:37:44;17.50;99.90
29575;DHT22;16507;51.046;6.406;2022-08-20T07:40:19;17.60;99.90
29575;DHT22;16507;51.046;6.406;2022-08-20T07:42:45;17.60;99.90
29575;DHT22;16507;51.046;6.406;2022-08-20T07:45:14;17.70;99.90
29575;DHT22;16507;51.046;6.406;2022-08-20T07:47:41;17.80;99.90
29575;DHT22;16507;51.046;6.406;2022-08-20T07:50:09;17.70;99.90
29575;DHT22;16507;51.046;6.406;2022-08-20T07:52:35;17.70;99.90
29575;DHT22;16507;51.046;6.406;2022-08-20T07:55:03;17.70;99.90
29575;DHT22;16507;51.046;6.406;2022-08-20T07:57:29;17.80;99.90
29575;DHT22;16507;51.046;6.406;2022-08-20T07:59:55;17.90;99.90
29575;DHT22;16507;51.046;6.406;2022-08-20T08:02:26;18.00;99.90
29575;DHT22;16507;51.046;6.406;2022-08-20T08:04:52;18.20;99.90
29575;DHT22;16507;51.046;6.406;2022-08-20T08:07:18;18.30;99.90
29575;DHT22;16507;51.046;6.406;2022-08-20T08:09:44;18.30;99.90
29575;DHT22;16507;51.046;6.406;2022-08-20T08:12:12;18.20;99.90
29575;DHT22;16507;51.046;6.406;2022-08-20T08:14:40;18.20;99.90
29575;DHT22;16507;51.046;6.406;2022-08-20T08:17:08;18.20;99.90
29575;DHT22;16507;51.046;6.406;2022-08-20T08:19:39;18.10;99.90
29575;DHT22;16507;51.046;6.406;2022-08-20T08:22:08;18.00;99.90
29575;DHT22;16507;51.046;6.406;2022-08-20T08:24:37;18.10;99.90
29575;DHT22;16507;51.046;6.406;2022-08-20T08:27:03;18.20;99.90
29575;DHT22;16507;51.046;6.406;2022-08-20T08:29:28;18.20;99.90
29575;DHT22;16507;51.046;6.406;2022-08-20T08:31:55;18.20;99.90
29575;DHT22;16507;51.046;6.406;2022-08-20T08:34:21;18.20;99.90
29575;DHT22;16507;51.046;6.406;2022-08-20T08:36:50;18.30;99.90
29575;DHT22;16507;51.046;6.406;2022-08-20T08:39:16;18.20;99.90
29575;DHT22;16507;51.046;6.406;2022-08-20T08:41:45;18.30;99.90
29575;DHT22;16507;51.046;6.406;2022-08-20T08:44:18;18.30;99.90
29575;DHT22;16507;51.046;6.406;2022-08-20T08:46:51;18.50;99.90
29575;DHT22;16507;51.046;6.406;2022-08-20T08:49:26;18.60;99.90
29575;DHT22;16507;51.046;6.406;2022-08-20T08:52:02;18.60;99.90
29575;DHT22;16507;51.046;6.406;2022-08-20T08:54:33;18.60;99.90
29575;DHT22;16507;51.046;6.406;2022-08-20T08:57:00;18.90;99.90
29575;DHT22;16507;51.046;6.406;2022-08-20T08:59:29;19.10;99.90
29575;DHT22;16507;51.046;6.406;2022-08-20T09:01:57;19.10;99.90
29575;DHT22;16507;51.046;6.406;2022-08-20T09:04:42;18.90;99.90
29575;DHT22;16507;51.046;6.406;2022-08-20T09:07:13;18.90;99.90
29575;DHT22;16507;51.046;6.406;2022-08-20T09:09:43;18.90;99.90
29575;DHT22;16507;51.046;6.406;2022-08-20T09:12:13;18.80;99.90
29575;DHT22;16507;51.046;6.406;2022-08-20T09:14:39;19.10;99.90
29575;DHT22;16507;51.046;6.406;2022-08-20T09:17:06;19.30;99.90
29575;DHT22;16507;51.046;6.406;2022-08-20T09:19:32;19.20;99.90
29575;DHT22;16507;51.046;6.406;2022-08-20T09:21:58;19.30;99.90
29575;DHT22;16507;51.046;6.406;2022-08-20T09:24:24;19.40;99.90
29575;DHT22;16507;51.046;6.406;2022-08-20T09:26:50;19.50;99.90
29575;DHT22;16507;51.046;6.406;2022-08-20T09:29:16;19.40;99.90
29575;DHT22;16507;51.046;6.406;2022-08-20T09:31:41;19.50;99.90
29575;DHT22;16507;51.046;6.406;2022-08-20T09:34:07;19.60;99.90
29575;DHT22;16507;51.046;6.406;2022-08-20T09:36:33;19.40;99.90
29575;DHT22;16507;51.046;6.406;2022-08-20T09:39:00;19.40;99.90
29575;DHT22;16507;51.046;6.406;2022-08-20T09:41:26;19.60;99.90
29575;DHT22;16507;51.046;6.406;2022-08-20T09:43:51;19.70;99.90
29575;DHT22;16507;51.046;6.406;2022-08-20T09:46:17;19.60;99.90
29575;DHT22;16507;51.046;6.406;2022-08-20T09:48:43;19.60;99.90
29575;DHT22;16507;51.046;6.406;2022-08-20T09:51:08;19.60;99.90
29575;DHT22;16507;51.046;6.406;2022-08-20T09:53:34;19.70;99.90
29575;DHT22;16507;51.046;6.406;2022-08-20T09:56:00;19.60;99.90
29575;DHT22;16507;51.046;6.406;2022-08-20T10:01:09;19.80;99.90
29575;DHT22;16507;51.046;6.406;2022-08-20T10:03:35;19.70;99.90
29575;DHT22;16507;51.046;6.406;2022-08-20T10:06:01;19.70;99.90
29575;DHT22;16507;51.046;6.406;2022-08-20T10:08:27;19.60;99.90
29575;DHT22;16507;51.046;6.406;2022-08-20T10:10:53;19.70;99.90
29575;DHT22;16507;51.046;6.406;2022-08-20T10:13:18;19.80;99.90
29575;DHT22;16507;51.046;6.406;2022-08-20T10:15:44;19.90;99.90
29575;DHT22;16507;51.046;6.406;2022-08-20T10:18:10;19.90;99.90
29575;DHT22;16507;51.046;6.406;2022-08-20T10:20:36;20.00;99.90
29575;DHT22;16507;51.046;6.406;2022-08-20T10:23:02;20.00;99.90
29575;DHT22;16507;51.046;6.406;2022-08-20T10:25:28;20.00;99.90
29575;DHT22;16507;51.046;6.406;2022-08-20T10:27:54;20.10;99.90
29575;DHT22;16507;51.046;6.406;2022-08-20T10:30:20;20.30;99.90
29575;DHT22;16507;51.046;6.406;2022-08-20T10:32:46;20.50;99.90
29575;DHT22;16507;51.046;6.406;2022-08-20T10:35:12;20.60;99.90
29575;DHT22;16507;51.046;6.406;2022-08-20T10:37:37;20.60;99.90
29575;DHT22;16507;51.046;6.406;2022-08-20T10:40:04;20.60;99.90
29575;DHT22;16507;51.046;6.406;2022-08-20T10:42:30;20.50;99.90
29575;DHT22;16507;51.046;6.406;2022-08-20T10:44:55;20.50;99.90
29575;DHT22;16507;51.046;6.406;2022-08-20T10:47:27;20.80;99.90
29575;DHT22;16507;51.046;6.406;2022-08-20T10:49:54;20.80;99.90
29575;DHT22;16507;51.046;6.406;2022-08-20T10:52:22;20.60;99.90
29575;DHT22;16507;51.046;6.406;2022-08-20T10:54:49;20.50;99.90
29575;DHT22;16507;51.046;6.406;2022-08-20T10:57:20;20.50;99.90
29575;DHT22;16507;51.046;6.406;2022-08-20T10:59:48;20.60;99.90
29575;DHT22;16507;51.046;6.406;2022-08-20T11:02:15;20.70;99.90
29575;DHT22;16507;51.046;6.406;2022-08-20T11:04:42;20.80;99.90
29575;DHT22;16507;51.046;6.406;2022-08-20T11:09:40;20.90;99.90
29575;DHT22;16507;51.046;6.406;2022-08-20T11:12:06;20.90;99.90
29575;DHT22;16507;51.046;6.406;2022-08-20T11:14:32;21.20;99.90
29575;DHT22;16507;51.046;6.406;2022-08-20T11:16:58;21.80;99.90
29575;DHT22;16507;51.046;6.406;2022-08-20T11:19:24;22.20;99.90
29575;DHT22;16507;51.046;6.406;2022-08-20T11:21:50;22.10;99.90
29575;DHT22;16507;51.046;6.406;2022-08-20T11:24:15;22.00;99.90
29575;DHT22;16507;51.046;6.406;2022-08-20T11:26:41;21.80;99.90
29575;DHT22;16507;51.046;6.406;2022-08-20T11:29:07;22.10;99.90
29575;DHT22;16507;51.046;6.406;2022-08-20T11:31:33;22.30;99.90
29575;DHT22;16507;51.046;6.406;2022-08-20T11:33:59;22.20;99.90
29575;DHT22;16507;51.046;6.406;2022-08-20T11:36:24;21.90;99.90
29575;DHT22;16507;51.046;6.406;2022-08-20T11:38:51;22.10;99.90
29575;DHT22;16507;51.046;6.406;2022-08-20T11:41:17;22.20;99.90
29575;DHT22;16507;51.046;6.406;2022-08-20T11:43:42;22.80;99.90
29575;DHT22;16507;51.046;6.406;2022-08-20T11:46:08;23.20;99.90
29575;DHT22;16507;51.046;6.406;2022-08-20T11:48:34;23.00;99.90
29575;DHT22;16507;51.046;6.406;2022-08-20T11:50:59;22.90;99.90
29575;DHT22;16507;51.046;6.406;2022-08-20T11:53:25;23.00;99.90
29575;DHT22;16507;51.046;6.406;2022-08-20T11:55:51;23.30;99.90
29575;DHT22;16507;51.046;6.406;2022-08-20T11:58:16;23.60;99.90
29575;DHT22;16507;51.046;6.406;2022-08-20T12:00:42;23.80;99.90
29575;DHT22;16507;51.046;6.406;2022-08-20T12:03:08;23.60;99.90
29575;DHT22;16507;51.046;6.406;2022-08-20T12:05:34;23.60;99.90
29575;DHT22;16507;51.046;6.406;2022-08-20T12:08:00;24.10;99.90
29575;DHT22;16507;51.046;6.406;2022-08-20T12:10:26;24.00;99.90
29575;DHT22;16507;51.046;6.406;2022-08-20T12:12:54;24.20;99.90
29575;DHT22;16507;51.046;6.406;2022-08-20T12:15:20;24.10;99.90
29575;DHT22;16507;51.046;6.406;2022-08-20T12:17:45;24.30;99.90
29575;DHT22;16507;51.046;6.406;2022-08-20T12:20:13;24.30;99.90
29575;DHT22;16507;51.046;6.406;2022-08-20T12:22:39;24.20;99.90
29575;DHT22;16507;51.046;6.406;2022-08-20T12:25:06;24.40;99.90
29575;DHT22;16507;51.046;6.406;2022-08-20T12:27:32;24.70;99.90
29575;DHT22;16507;51.046;6.406;2022-08-20T12:30:00;25.00;99.90
29575;DHT22;16507;51.046;6.406;2022-08-20T12:32:28;25.00;99.90
29575;DHT22;16507;51.046;6.406;2022-08-20T12:34:55;24.90;99.90
29575;DHT22;16507;51.046;6.406;2022-08-20T12:37:23;24.80;99.90
29575;DHT22;16507;51.046;6.406;2022-08-20T12:39:51;24.70;99.90
29575;DHT22;16507;51.046;6.406;2022-08-20T12:42:17;24.60;99.90
29575;DHT22;16507;51.046;6.406;2022-08-20T12:44:43;24.70;99.90
29575;DHT22;16507;51.046;6.406;2022-08-20T12:47:17;24.70;99.90
29575;DHT22;16507;51.046;6.406;2022-08-20T12:49:46;24.70;99.90
29575;DHT22;16507;51.046;6.406;2022-08-20T12:52:14;25.00;97.60
29575;DHT22;16507;51.046;6.406;2022-08-20T12:54:40;24.20;97.70
29575;DHT22;16507;51.046;6.406;2022-08-20T12:57:06;23.90;99.90
29575;DHT22;16507;51.046;6.406;2022-08-20T12:59:37;24.20;99.90
29575;DHT22;16507;51.046;6.406;2022-08-20T13:02:03;24.80;91.60
29575;DHT22;16507;51.046;6.406;2022-08-20T13:04:29;24.70;98.30
29575;DHT22;16507;51.046;6.406;2022-08-20T13:07:02;25.00;95.60
29575;DHT22;16507;51.046;6.406;2022-08-20T13:09:28;25.10;91.60
29575;DHT22;16507;51.046;6.406;2022-08-20T13:11:54;25.10;88.10
29575;DHT22;16507;51.046;6.406;2022-08-20T13:14:19;25.10;82.30
29575;DHT22;16507;51.046;6.406;2022-08-20T13:16:45;25.40;90.60
29575;DHT22;16507;51.046;6.406;2022-08-20T13:19:11;25.50;82.00
29575;DHT22;16507;51.046;6.406;2022-08-20T13:21:36;25.60;77.30
29575;DHT22;16507;51.046;6.406;2022-08-20T13:24:02;25.50;76.00
29575;DHT22;16507;51.046;6.406;2022-08-20T13:26:28;25.30;78.60
29575;DHT22;16507;51.046;6.406;2022-08-20T13:28:54;25.20;77.10
29575;DHT22;16507;51.046;6.406;2022-08-20T13:31:19;25.20;72.70
29575;DHT22;16507;51.046;6.406;2022-08-20T13:33:45;25.20;81.70
